Time;durP1;ratioP1;P1;durP2;ratioP2;P2;SDS_P1;SDS_P2;PMS_P1;PMS_P2;Temp;Humidity;BMP_temperature;BMP_pressure;BME280_temperature;BME280_humidity;BME280_pressure;Samples;Min_cycle;Max_cycle;Signal;HPM_P1;HPM_P2
2021/05/08 00:01:33;;;;;;;;;;;;;;;;;;5024258;28;20332;-69
2021/05/08 00:04:00;;;;;;;;;;;;;;;;;;5021717;28;19925;-69
2021/05/08 00:06:26;;;;;;;;;;;;;;;;;;5018874;28;20416;-67
2021/05/08 00:08:53;;;;;;;;;;;;;;;;;;5028043;28;19940;-67
2021/05/08 00:11:19;;;;;;;;;;;;;;;;;;5028992;28;20004;-69
2021/05/08 00:13:46;;;;;;;;;;;;;;;;;;5020462;28;19983;-69
2021/05/08 00:16:12;;;;;;;;;;;;;;;;;;5027417;28;19925;-70
2021/05/08 00:18:39;;;;;;;;;;;;;;;;;;5026910;28;20308;-66
2021/05/08 00:21:05;;;;;;;;;;;;;;;;;;5025413;28;20004;-69
2021/05/08 00:23:32;;;;;;;;;;;;;;;;;;5024888;28;20024;-69
2021/05/08 00:25:58;;;;;;;;;;;;;;;;;;5028140;28;20381;-69
2021/05/08 00:28:25;;;;;;;;;;;;;;;;;;5028977;28;19925;-69
2021/05/08 00:30:51;;;;;;;;;;;;;;;;;;5019818;28;19929;-69
2021/05/08 00:33:18;;;;;;;;;;;;;;;;;;5023967;28;20149;-69
2021/05/08 00:35:44;;;;;;;;;;;;;;;;;;5056650;22;19924;-70
2021/05/08 00:38:11;;;;;;;;;;;;;;;;;;5062604;28;20015;-68
2021/05/08 00:40:37;;;;;;;;;;;;;;;;;;5061667;28;19975;-68
2021/05/08 00:43:04;;;;;;;;;;;;;;;;;;5068909;28;20011;-69
2021/05/08 00:45:30;;;;;;;;;;;;;;;;;;5068005;28;19963;-72
2021/05/08 00:47:57;;;;;;;;;;;;;;;;;;5066303;28;19974;-69
2021/05/08 00:50:23;;;;;;;;;;;;;;;;;;5054232;28;19925;-68
2021/05/08 00:52:50;;;;;;;;;;;;;;;;;;5061252;28;20014;-66
2021/05/08 00:55:16;;;;;;;;;;;;;;;;;;5062705;28;19928;-68
2021/05/08 00:57:43;;;;;;;;;;;;;;;;;;5061508;28;19947;-68
2021/05/08 01:00:09;;;;;;;;;;;;;;;;;;5064359;28;19933;-69
2021/05/08 01:02:36;;;;;;;;;;;;;;;;;;5065799;28;20031;-69
2021/05/08 01:05:02;;;;;;;;;;;;;;;;;;5059500;28;19963;-71
2021/05/08 01:07:29;;;;;;;;;;;;;;;;;;5060934;28;19928;-68
2021/05/08 01:09:55;;;;;;;;;;;;;;;;;;5061757;28;19929;-69
2021/05/08 01:12:22;;;;;;;;;;;;;;;;;;5061168;28;19959;-68
2021/05/08 01:14:48;;;;;;;;;;;;;;;;;;5059529;28;20269;-69
2021/05/08 01:17:15;;;;;;;;;;;;;;;;;;5068098;28;20066;-69
2021/05/08 01:19:41;;;;;;;;;;;;;;;;;;5065000;28;19924;-68
2021/05/08 01:22:08;;;;;;;;;;;;;;;;;;5068534;28;19925;-68
2021/05/08 01:24:34;;;;;;;;;;;;;;;;;;5064078;28;19929;-68
2021/05/08 01:27:01;;;;;;;;;;;;;;;;;;5058716;28;19932;-67
2021/05/08 01:29:27;;;;;;;;;;;;;;;;;;5062310;28;19938;-67
2021/05/08 01:31:54;;;;;;;;;;;;;;;;;;5060357;28;19929;-69
2021/05/08 01:34:20;;;;;;;;;;;;;;;;;;5063653;28;19928;-66
2021/05/08 01:36:47;;;;;;;;;;;;;;;;;;5065880;28;19935;-68
2021/05/08 01:39:13;;;;;;;;;;;;;;;;;;5069450;28;20441;-65
2021/05/08 01:41:40;;;;;;;;;;;;;;;;;;5066751;28;19932;-70
2021/05/08 01:44:09;;;;;;;;;;;;;;;;;;5067454;28;20019;-69
2021/05/08 01:46:35;;;;;;;;;;;;;;;;;;5065555;28;20369;-67
2021/05/08 01:49:02;;;;;;;;;;;;;;;;;;5069982;28;20019;-67
2021/05/08 01:51:28;;;;;;;;;;;;;;;;;;5061921;28;20023;-69
2021/05/08 01:53:55;;;;;;;;;;;;;;;;;;5063809;28;20395;-69
2021/05/08 01:56:21;;;;;;;;;;;;;;;;;;5062191;28;19955;-68
2021/05/08 01:58:48;;;;;;;;;;;;;;;;;;5063804;28;20023;-69
2021/05/08 02:01:14;;;;;;;;;;;;;;;;;;5065792;28;19986;-67
2021/05/08 02:03:41;;;;;;;;;;;;;;;;;;5071376;28;19928;-68
2021/05/08 02:06:07;;;;;;;;;;;;;;;;;;5064455;28;20316;-70
2021/05/08 02:08:34;;;;;;;;;;;;;;;;;;5062031;28;20369;-69
2021/05/08 02:11:00;;;;;;;;;;;;;;;;;;5064576;28;19928;-68
2021/05/08 02:13:27;;;;;;;;;;;;;;;;;;5066961;28;20050;-72
2021/05/08 02:15:53;;;;;;;;;;;;;;;;;;5065862;28;20449;-69
2021/05/08 02:18:20;;;;;;;;;;;;;;;;;;5064832;28;19924;-68
2021/05/08 02:20:46;;;;;;;;;;;;;;;;;;5065682;28;20020;-69
2021/05/08 02:23:13;;;;;;;;;;;;;;;;;;5064793;28;19950;-68
2021/05/08 02:25:39;;;;;;;;;;;;;;;;;;5066007;28;19925;-68
2021/05/08 02:28:06;;;;;;;;;;;;;;;;;;5066110;28;20069;-70
2021/05/08 02:30:32;;;;;;;;;;;;;;;;;;5061896;28;20284;-68
2021/05/08 02:32:59;;;;;;;;;;;;;;;;;;5061413;28;20237;-68
2021/05/08 02:35:25;;;;;;;;;;;;;;;;;;5066107;28;19925;-69
2021/05/08 02:37:52;;;;;;;;;;;;;;;;;;5062782;28;19925;-68
2021/05/08 02:40:18;;;;;;;;;;;;;;;;;;5067050;28;20035;-69
2021/05/08 02:42:45;;;;;;;;;;;;;;;;;;5069433;28;20015;-70
2021/05/08 02:45:11;;;;;;;;;;;;;;;;;;5069839;28;19933;-68
2021/05/08 02:47:38;;;;;;;;;;;;;;;;;;5066426;28;20027;-68
2021/05/08 02:50:04;;;;;;;;;;;;;;;;;;5070627;28;19924;-70
2021/05/08 02:52:31;;;;;;;;;;;;;;;;;;5067662;28;20426;-67
2021/05/08 02:54:57;;;;;;;;;;;;;;;;;;5066908;28;19924;-67
2021/05/08 02:57:24;;;;;;;;;;;;;;;;;;5068124;28;20353;-69
2021/05/08 02:59:50;;;;;;;;;;;;;;;;;;5060091;28;19975;-68
2021/05/08 03:02:17;;;;;;;;;;;;;;;;;;5060325;28;20059;-70
2021/05/08 03:04:43;;;;;;;;;;;;;;;;;;5066191;28;19925;-68
2021/05/08 03:07:10;;;;;;;;;;;;;;;;;;5062632;28;19933;-68
2021/05/08 03:09:36;;;;;;;;;;;;;;;;;;5064179;28;19972;-69
2021/05/08 03:12:03;;;;;;;;;;;;;;;;;;5065787;28;19931;-70
2021/05/08 03:14:29;;;;;;;;;;;;;;;;;;5063771;28;20012;-66
2021/05/08 03:16:56;;;;;;;;;;;;;;;;;;5062988;28;20419;-69
2021/05/08 03:19:23;;;;;;;;;;;;;;;;;;5060801;28;19925;-68
2021/05/08 03:21:49;;;;;;;;;;;;;;;;;;5062076;28;20031;-70
2021/05/08 03:24:16;;;;;;;;;;;;;;;;;;5067512;28;19931;-69
2021/05/08 03:26:42;;;;;;;;;;;;;;;;;;5060142;28;19931;-70
2021/05/08 03:29:09;;;;;;;;;;;;;;;;;;5066390;28;19925;-69
2021/05/08 03:31:35;;;;;;;;;;;;;;;;;;5059037;28;20391;-68
2021/05/08 03:34:02;;;;;;;;;;;;;;;;;;5064823;28;19954;-68
2021/05/08 03:36:29;;;;;;;;;;;;;;;;;;5059753;28;19924;-69
2021/05/08 03:38:55;;;;;;;;;;;;;;;;;;5064327;28;19928;-68
2021/05/08 03:41:22;;;;;;;;;;;;;;;;;;5063108;28;19932;-71
2021/05/08 03:43:48;;;;;;;;;;;;;;;;;;5061206;28;19924;-67
2021/05/08 03:46:15;;;;;;;;;;;;;;;;;;5064003;28;19924;-68
2021/05/08 03:48:41;;;;;;;;;;;;;;;;;;5067463;28;19925;-68
2021/05/08 03:51:08;;;;;;;;;;;;;;;;;;5064279;28;19935;-69
2021/05/08 03:53:34;;;;;;;;;;;;;;;;;;5063979;28;19924;-69
2021/05/08 03:56:01;;;;;;;;;;;;;;;;;;5064709;28;19933;-71
2021/05/08 03:58:29;;;;;;;;;;;;;;;;;;5056055;28;19932;-71
2021/05/08 04:00:55;;;;;;;;;;;;;;;;;;5068108;28;20011;-68
2021/05/08 04:03:22;;;;;;;;;;;;;;;;;;5056372;28;20380;-68
2021/05/08 04:05:48;;;;;;;;;;;;;;;;;;5056778;28;20389;-66
2021/05/08 04:08:15;;;;;;;;;;;;;;;;;;5056968;28;20371;-69
2021/05/08 04:10:41;;;;;;;;;;;;;;;;;;5064491;28;19924;-68
2021/05/08 04:13:08;;;;;;;;;;;;;;;;;;5064033;28;19930;-68
2021/05/08 04:15:34;;;;;;;;;;;;;;;;;;5060512;28;19991;-69
2021/05/08 04:18:01;;;;;;;;;;;;;;;;;;5063656;28;19931;-67
2021/05/08 04:20:27;;;;;;;;;;;;;;;;;;5067185;28;19964;-69
2021/05/08 04:22:54;;;;;;;;;;;;;;;;;;5060361;28;20303;-70
2021/05/08 04:25:20;;;;;;;;;;;;;;;;;;5059827;28;19928;-68
2021/05/08 04:27:47;;;;;;;;;;;;;;;;;;5061175;28;19928;-68
2021/05/08 04:30:13;;;;;;;;;;;;;;;;;;5068086;28;19925;-69
2021/05/08 04:32:40;;;;;;;;;;;;;;;;;;5060480;28;19936;-71
2021/05/08 04:35:06;;;;;;;;;;;;;;;;;;5059719;28;20427;-70
2021/05/08 04:37:33;;;;;;;;;;;;;;;;;;5066840;28;20011;-69
2021/05/08 04:39:59;;;;;;;;;;;;;;;;;;5061127;28;19979;-68
2021/05/08 04:42:26;;;;;;;;;;;;;;;;;;5057476;28;19932;-69
2021/05/08 04:44:52;;;;;;;;;;;;;;;;;;5061127;28;19925;-68
2021/05/08 04:47:20;;;;;;;;;;;;;;;;;;5061781;28;20398;-70
2021/05/08 04:49:47;;;;;;;;;;;;;;;;;;5061904;28;19924;-69
2021/05/08 04:52:13;;;;;;;;;;;;;;;;;;5063622;28;19937;-68
2021/05/08 04:54:40;;;;;;;;;;;;;;;;;;5060822;28;20303;-68
2021/05/08 04:57:06;;;;;;;;;;;;;;;;;;5067384;28;19932;-69
2021/05/08 04:59:33;;;;;;;;;;;;;;;;;;5063061;28;19925;-68
2021/05/08 05:02:03;;;;;;;;;;;;;;;;;;5065826;28;19929;-69
2021/05/08 05:04:29;;;;;;;;;;;;;;;;;;5062080;28;20055;-68
2021/05/08 05:06:56;;;;;;;;;;;;;;;;;;5062626;28;19984;-69
2021/05/08 05:09:23;;;;;;;;;;;;;;;;;;5065078;28;19925;-67
2021/05/08 05:11:50;;;;;;;;;;;;;;;;;;5058602;28;20435;-67
2021/05/08 05:14:16;;;;;;;;;;;;;;;;;;5067567;28;19950;-66
2021/05/08 05:16:43;;;;;;;;;;;;;;;;;;5076570;28;20055;-67
2021/05/08 05:19:09;;;;;;;;;;;;;;;;;;5077378;28;19924;-67
2021/05/08 05:21:36;;;;;;;;;;;;;;;;;;5077895;28;20042;-68
2021/05/08 05:24:02;;;;;;;;;;;;;;;;;;5068471;28;19964;-67
2021/05/08 05:26:29;;;;;;;;;;;;;;;;;;5073625;28;19932;-66
2021/05/08 05:28:55;;;;;;;;;;;;;;;;;;5076959;28;19924;-67
2021/05/08 05:31:22;;;;;;;;;;;;;;;;;;5073395;28;19933;-68
2021/05/08 05:33:51;;;;;;;;;;;;;;;;;;5076743;28;19925;-67
2021/05/08 05:36:17;;;;;;;;;;;;;;;;;;5066109;28;19938;-67
2021/05/08 05:38:44;;;;;;;;;;;;;;;;;;5059650;28;19933;-70
2021/05/08 05:41:13;;;;;;;;;;;;;;;;;;5060914;28;20023;-70
2021/05/08 05:43:39;;;;;;;;;;;;;;;;;;5066008;28;20007;-69
2021/05/08 05:46:06;;;;;;;;;;;;;;;;;;5063313;28;19968;-68
2021/05/08 05:48:32;;;;;;;;;;;;;;;;;;5063673;28;19925;-72
2021/05/08 05:50:59;;;;;;;;;;;;;;;;;;5062292;28;20429;-70
2021/05/08 05:53:25;;;;;;;;;;;;;;;;;;5058378;28;19924;-69
2021/05/08 05:55:52;;;;;;;;;;;;;;;;;;5057605;28;20067;-69
2021/05/08 05:58:18;;;;;;;;;;;;;;;;;;5065749;28;20339;-69
2021/05/08 06:00:45;;;;;;;;;;;;;;;;;;5061585;28;19981;-69
2021/05/08 06:03:11;;;;;;;;;;;;;;;;;;5060444;28;19943;-69
2021/05/08 06:05:38;;;;;;;;;;;;;;;;;;5062468;28;19931;-69
2021/05/08 06:08:04;;;;;;;;;;;;;;;;;;5057465;28;19924;-69
2021/05/08 06:10:31;;;;;;;;;;;;;;;;;;5064554;28;19924;-70
2021/05/08 06:12:57;;;;;;;;;;;;;;;;;;5062360;28;19925;-68
2021/05/08 06:15:24;;;;;;;;;;;;;;;;;;5065047;28;20021;-67
2021/05/08 06:17:50;;;;;;;;;;;;;;;;;;5065544;28;19928;-68
2021/05/08 06:20:17;;;;;;;;;;;;;;;;;;5065221;28;20000;-69
2021/05/08 06:22:43;;;;;;;;;;;;;;;;;;5063314;28;19931;-70
2021/05/08 06:25:10;;;;;;;;;;;;;;;;;;5059136;28;20331;-70
2021/05/08 06:27:36;;;;;;;;;;;;;;;;;;5063803;28;19925;-64
2021/05/08 06:30:03;;;;;;;;;;;;;;;;;;5060454;28;20019;-68
2021/05/08 06:32:29;;;;;;;;;;;;;;;;;;5058868;28;19924;-69
2021/05/08 06:34:56;;;;;;;;;;;;;;;;;;5061135;28;19931;-69
2021/05/08 06:37:22;;;;;;;;;;;;;;;;;;5077956;22;19925;-64
2021/05/08 06:39:49;;;;;;;;;;;;;;;;;;5057734;28;20338;-65
2021/05/08 06:42:17;;;;;;;;;;;;;;;;;;5066706;28;19932;-65
2021/05/08 06:44:44;;;;;;;;;;;;;;;;;;5062013;28;19931;-65
2021/05/08 06:47:14;;;;;;;;;;;;;;;;;;5064086;28;19929;-64
2021/05/08 06:49:41;;;;;;;;;;;;;;;;;;5062460;28;19935;-65
2021/05/08 06:52:07;;;;;;;;;;;;;;;;;;5065872;28;19938;-65
2021/05/08 06:54:34;;;;;;;;;;;;;;;;;;5067184;28;20023;-64
2021/05/08 06:57:00;;;;;;;;;;;;;;;;;;5067294;28;19935;-65
2021/05/08 06:59:27;;;;;;;;;;;;;;;;;;5067891;28;20352;-65
2021/05/08 07:01:53;;;;;;;;;;;;;;;;;;5066196;28;19939;-65
2021/05/08 07:04:20;;;;;;;;;;;;;;;;;;5065612;28;19925;-64
2021/05/08 07:06:47;;;;;;;;;;;;;;;;;;5063226;28;19924;-65
2021/05/08 07:09:13;;;;;;;;;;;;;;;;;;5068411;28;19931;-65
2021/05/08 07:11:40;;;;;;;;;;;;;;;;;;5066665;28;19924;-66
2021/05/08 07:14:06;;;;;;;;;;;;;;;;;;5064722;28;20287;-65
2021/05/08 07:16:33;;;;;;;;;;;;;;;;;;5068882;28;20015;-65
2021/05/08 07:18:59;;;;;;;;;;;;;;;;;;5065782;28;19972;-66
2021/05/08 07:21:26;;;;;;;;;;;;;;;;;;5067627;28;19931;-66
2021/05/08 07:23:52;;;;;;;;;;;;;;;;;;5062680;28;19925;-66
2021/05/08 07:26:19;;;;;;;;;;;;;;;;;;5066957;28;19925;-65
2021/05/08 07:28:46;;;;;;;;;;;;;;;;;;5067310;28;20277;-65
2021/05/08 07:31:12;;;;;;;;;;;;;;;;;;5060623;28;19982;-65
2021/05/08 07:33:39;;;;;;;;;;;;;;;;;;5068586;28;19931;-67
2021/05/08 07:36:05;;;;;;;;;;;;;;;;;;5062549;28;19925;-68
2021/05/08 07:38:32;;;;;;;;;;;;;;;;;;5063308;28;20418;-66
2021/05/08 07:40:58;;;;;;;;;;;;;;;;;;5065902;28;20414;-67
2021/05/08 07:43:25;;;;;;;;;;;;;;;;;;5065254;28;19925;-67
2021/05/08 07:45:51;;;;;;;;;;;;;;;;;;5063032;28;20396;-67
2021/05/08 07:48:18;;;;;;;;;;;;;;;;;;5063880;28;19925;-67
2021/05/08 07:50:44;;;;;;;;;;;;;;;;;;5065178;28;19979;-67
2021/05/08 07:53:11;;;;;;;;;;;;;;;;;;5064940;28;19935;-67
2021/05/08 07:55:37;;;;;;;;;;;;;;;;;;5064715;28;19936;-67
2021/05/08 07:58:04;;;;;;;;;;;;;;;;;;5061393;28;19934;-67
2021/05/08 08:00:30;;;;;;;;;;;;;;;;;;5063393;28;19932;-67
2021/05/08 08:02:57;;;;;;;;;;;;;;;;;;5065973;28;19924;-68
2021/05/08 08:05:23;;;;;;;;;;;;;;;;;;5065052;28;19924;-66
2021/05/08 08:07:50;;;;;;;;;;;;;;;;;;5062256;28;20388;-66
2021/05/08 08:10:16;;;;;;;;;;;;;;;;;;5065800;28;19931;-66
2021/05/08 08:12:43;;;;;;;;;;;;;;;;;;5063145;28;20339;-66
2021/05/08 08:15:09;;;;;;;;;;;;;;;;;;5058991;28;20803;-67
2021/05/08 08:17:36;;;;;;;;;;;;;;;;;;5062647;28;20385;-67
2021/05/08 08:20:02;;;;;;;;;;;;;;;;;;5064643;28;19970;-66
2021/05/08 08:22:29;;;;;;;;;;;;;;;;;;5063170;28;19931;-67
2021/05/08 08:24:56;;;;;;;;;;;;;;;;;;5066908;28;20300;-65
2021/05/08 08:27:23;;;;;;;;;;;;;;;;;;5066603;28;19924;-65
2021/05/08 08:29:49;;;;;;;;;;;;;;;;;;5065760;28;20039;-65
2021/05/08 08:32:15;;;;;;;;;;;;;;;;;;5066385;28;20394;-66
2021/05/08 08:34:42;;;;;;;;;;;;;;;;;;5066788;28;20290;-66
2021/05/08 08:37:08;;;;;;;;;;;;;;;;;;5066824;28;19924;-64
2021/05/08 08:39:35;;;;;;;;;;;;;;;;;;5071838;28;20406;-65
2021/05/08 08:42:01;;;;;;;;;;;;;;;;;;5072070;28;20331;-65
2021/05/08 08:44:28;;;;;;;;;;;;;;;;;;5071312;28;19936;-65
2021/05/08 08:46:55;;;;;;;;;;;;;;;;;;5072106;28;20066;-65
2021/05/08 08:49:22;;;;;;;;;;;;;;;;;;5071775;28;19962;-65
2021/05/08 08:51:48;;;;;;;;;;;;;;;;;;5069188;28;19962;-64
2021/05/08 08:54:15;;;;;;;;;;;;;;;;;;5071213;28;19932;-65
2021/05/08 08:56:43;;;;;;;;;;;;;;;;;;5068098;28;19954;-66
2021/05/08 08:59:15;;;;;;;;;;;;;;;;;;5069647;28;19931;-64
2021/05/08 09:01:42;;;;;;;;;;;;;;;;;;5071999;28;19931;-66
2021/05/08 09:04:09;;;;;;;;;;;;;;;;;;5069600;28;19996;-66
2021/05/08 09:06:35;;;;;;;;;;;;;;;;;;5070304;28;19924;-65
2021/05/08 09:09:02;;;;;;;;;;;;;;;;;;5066526;28;19925;-65
2021/05/08 09:11:28;;;;;;;;;;;;;;;;;;5064506;28;19925;-66
2021/05/08 09:13:55;;;;;;;;;;;;;;;;;;5070518;28;19951;-66
2021/05/08 09:16:21;;;;;;;;;;;;;;;;;;5069746;28;20011;-66
2021/05/08 09:18:48;;;;;;;;;;;;;;;;;;5070165;28;19924;-66
2021/05/08 09:21:14;;;;;;;;;;;;;;;;;;5064710;28;20294;-66
2021/05/08 09:23:41;;;;;;;;;;;;;;;;;;5066927;28;19990;-64
2021/05/08 09:26:07;;;;;;;;;;;;;;;;;;5070433;28;20007;-65
2021/05/08 09:28:35;;;;;;;;;;;;;;;;;;5071194;28;19924;-64
2021/05/08 09:31:01;;;;;;;;;;;;;;;;;;5066061;28;20008;-63
2021/05/08 09:33:28;;;;;;;;;;;;;;;;;;5065018;28;19933;-65
2021/05/08 09:35:54;;;;;;;;;;;;;;;;;;5070993;28;19931;-64
2021/05/08 09:38:21;;;;;;;;;;;;;;;;;;5070402;28;20371;-64
2021/05/08 09:40:48;;;;;;;;;;;;;;;;;;5067045;28;19931;-64
2021/05/08 09:43:14;;;;;;;;;;;;;;;;;;5070228;28;19925;-65
2021/05/08 09:45:41;;;;;;;;;;;;;;;;;;5069848;28;20023;-64
2021/05/08 09:48:07;;;;;;;;;;;;;;;;;;5069920;28;19924;-64
2021/05/08 09:50:34;;;;;;;;;;;;;;;;;;5068965;28;19928;-64
2021/05/08 09:53:00;;;;;;;;;;;;;;;;;;5071064;28;19989;-64
2021/05/08 09:55:27;;;;;;;;;;;;;;;;;;5069624;28;20017;-64
2021/05/08 09:57:53;;;;;;;;;;;;;;;;;;5068626;28;20032;-65
2021/05/08 10:00:20;;;;;;;;;;;;;;;;;;5070957;28;19970;-64
2021/05/08 10:02:46;;;;;;;;;;;;;;;;;;5067733;28;19943;-65
2021/05/08 10:05:13;;;;;;;;;;;;;;;;;;5068921;28;19977;-65
2021/05/08 10:07:39;;;;;;;;;;;;;;;;;;5068415;28;19990;-64
2021/05/08 10:10:06;;;;;;;;;;;;;;;;;;5070054;28;19924;-64
2021/05/08 10:12:32;;;;;;;;;;;;;;;;;;5064619;28;20015;-65
2021/05/08 10:14:59;;;;;;;;;;;;;;;;;;5070366;28;20011;-66
2021/05/08 10:17:25;;;;;;;;;;;;;;;;;;5070094;28;20062;-64
2021/05/08 10:19:52;;;;;;;;;;;;;;;;;;5068556;28;20306;-64
2021/05/08 10:22:18;;;;;;;;;;;;;;;;;;5067063;28;19925;-63
2021/05/08 10:24:45;;;;;;;;;;;;;;;;;;5069389;28;19967;-64
2021/05/08 10:27:11;;;;;;;;;;;;;;;;;;5068405;28;19925;-63
2021/05/08 10:29:38;;;;;;;;;;;;;;;;;;5066863;28;20026;-63
2021/05/08 10:32:04;;;;;;;;;;;;;;;;;;5066559;28;19963;-64
2021/05/08 10:34:32;;;;;;;;;;;;;;;;;;5070211;28;20311;-64
2021/05/08 10:36:58;;;;;;;;;;;;;;;;;;5068566;28;19932;-64
2021/05/08 10:39:25;;;;;;;;;;;;;;;;;;5069902;28;19924;-64
2021/05/08 10:41:51;;;;;;;;;;;;;;;;;;5069504;28;19925;-63
2021/05/08 10:44:18;;;;;;;;;;;;;;;;;;5070573;28;19978;-63
2021/05/08 10:46:44;;;;;;;;;;;;;;;;;;5069715;28;19924;-63
2021/05/08 10:49:12;;;;;;;;;;;;;;;;;;5070337;28;20285;-63
2021/05/08 10:51:39;;;;;;;;;;;;;;;;;;5067375;28;19924;-63
2021/05/08 10:54:05;;;;;;;;;;;;;;;;;;5066414;28;19931;-65
2021/05/08 10:56:32;;;;;;;;;;;;;;;;;;5058214;28;20061;-64
2021/05/08 10:58:58;;;;;;;;;;;;;;;;;;5059919;28;19929;-64
2021/05/08 11:01:24;;;;;;;;;;;;;;;;;;5063320;28;19936;-65
2021/05/08 11:03:51;;;;;;;;;;;;;;;;;;5060978;28;19938;-65
2021/05/08 11:06:17;;;;;;;;;;;;;;;;;;5063370;28;19983;-66
2021/05/08 11:08:44;;;;;;;;;;;;;;;;;;5063526;28;20069;-65
2021/05/08 11:11:11;;;;;;;;;;;;;;;;;;5064021;28;19936;-67
2021/05/08 11:13:38;;;;;;;;;;;;;;;;;;5063109;28;19936;-66
2021/05/08 11:16:04;;;;;;;;;;;;;;;;;;5062366;28;19963;-63
2021/05/08 11:18:31;;;;;;;;;;;;;;;;;;5065590;28;20289;-65
2021/05/08 11:20:58;;;;;;;;;;;;;;;;;;5057294;28;19925;-65
2021/05/08 11:23:24;;;;;;;;;;;;;;;;;;5066730;28;20603;-65
2021/05/08 11:25:51;;;;;;;;;;;;;;;;;;5062934;28;20365;-65
2021/05/08 11:28:17;;;;;;;;;;;;;;;;;;5067134;28;19935;-64
2021/05/08 11:30:44;;;;;;;;;;;;;;;;;;5064034;28;19981;-64
2021/05/08 11:33:10;;;;;;;;;;;;;;;;;;5056569;28;20451;-64
2021/05/08 11:35:36;;;;;;;;;;;;;;;;;;5064156;28;20022;-64
2021/05/08 11:38:05;;;;;;;;;;;;;;;;;;5064262;28;19929;-64
2021/05/08 11:40:31;;;;;;;;;;;;;;;;;;5060326;28;19935;-63
2021/05/08 11:42:59;;;;;;;;;;;;;;;;;;5068782;28;19925;-64
2021/05/08 11:45:25;;;;;;;;;;;;;;;;;;5069269;28;19977;-65
2021/05/08 11:47:52;;;;;;;;;;;;;;;;;;5068960;28;19924;-65
2021/05/08 11:50:19;;;;;;;;;;;;;;;;;;5059279;28;19924;-64
2021/05/08 11:52:47;;;;;;;;;;;;;;;;;;5066591;28;20647;-65
2021/05/08 11:55:15;;;;;;;;;;;;;;;;;;5067598;28;19925;-66
2021/05/08 11:57:45;;;;;;;;;;;;;;;;;;5066800;28;20369;-65
2021/05/08 12:00:11;;;;;;;;;;;;;;;;;;5063126;28;19924;-65
2021/05/08 12:02:38;;;;;;;;;;;;;;;;;;5068848;28;19983;-66
2021/05/08 12:05:04;;;;;;;;;;;;;;;;;;5060458;28;19988;-64
2021/05/08 12:07:31;;;;;;;;;;;;;;;;;;5067036;28;20077;-64
2021/05/08 12:09:57;;;;;;;;;;;;;;;;;;5067225;28;20344;-66
2021/05/08 12:12:24;;;;;;;;;;;;;;;;;;5065464;28;19931;-65
2021/05/08 12:14:50;;;;;;;;;;;;;;;;;;5060978;28;20023;-65
2021/05/08 12:17:17;;;;;;;;;;;;;;;;;;5061706;28;19931;-64
2021/05/08 12:19:44;;;;;;;;;;;;;;;;;;5066737;28;20453;-65
2021/05/08 12:22:10;;;;;;;;;;;;;;;;;;5067400;28;19982;-67
2021/05/08 12:24:37;;;;;;;;;;;;;;;;;;5064442;28;19978;-65
2021/05/08 12:27:03;;;;;;;;;;;;;;;;;;5064361;28;19924;-65
2021/05/08 12:29:30;;;;;;;;;;;;;;;;;;5065488;28;19932;-65
2021/05/08 12:31:56;;;;;;;;;;;;;;;;;;5065887;28;19935;-64
2021/05/08 12:34:24;;;;;;;;;;;;;;;;;;5067556;28;19947;-65
2021/05/08 12:36:51;;;;;;;;;;;;;;;;;;5067836;28;19925;-64
2021/05/08 12:39:17;;;;;;;;;;;;;;;;;;5075401;28;19987;-62
2021/05/08 12:41:44;;;;;;;;;;;;;;;;;;5077305;28;19983;-65
2021/05/08 12:44:10;;;;;;;;;;;;;;;;;;5074492;28;19928;-63
2021/05/08 12:46:37;;;;;;;;;;;;;;;;;;5067738;28;19932;-62
2021/05/08 12:49:03;;;;;;;;;;;;;;;;;;5067516;28;19974;-65
2021/05/08 12:51:30;;;;;;;;;;;;;;;;;;5064775;28;19932;-65
2021/05/08 12:53:56;;;;;;;;;;;;;;;;;;5067755;28;20016;-64
2021/05/08 12:56:23;;;;;;;;;;;;;;;;;;5068970;28;19924;-65
2021/05/08 12:58:49;;;;;;;;;;;;;;;;;;5065885;28;20020;-65
2021/05/08 13:01:16;;;;;;;;;;;;;;;;;;5068353;28;19984;-64
2021/05/08 13:03:42;;;;;;;;;;;;;;;;;;5069138;28;20008;-65
2021/05/08 13:06:09;;;;;;;;;;;;;;;;;;5067113;28;20070;-65
2021/05/08 13:08:35;;;;;;;;;;;;;;;;;;5063358;28;19964;-64
2021/05/08 13:11:02;;;;;;;;;;;;;;;;;;5074939;28;19932;-64
2021/05/08 13:13:28;;;;;;;;;;;;;;;;;;5070255;28;19925;-65
2021/05/08 13:15:57;;;;;;;;;;;;;;;;;;5070429;28;19924;-64
2021/05/08 13:18:24;;;;;;;;;;;;;;;;;;5068840;28;19924;-65
2021/05/08 13:20:50;;;;;;;;;;;;;;;;;;5070734;28;19929;-64
2021/05/08 13:23:17;;;;;;;;;;;;;;;;;;5073931;28;19931;-66
2021/05/08 13:25:43;;;;;;;;;;;;;;;;;;5068390;28;19924;-66
2021/05/08 13:28:13;;;;;;;;;;;;;;;;;;5071577;28;19948;-64
2021/05/08 13:30:39;;;;;;;;;;;;;;;;;;5068911;28;20376;-65
2021/05/08 13:33:06;;;;;;;;;;;;;;;;;;5070411;28;19928;-64
2021/05/08 13:35:32;;;;;;;;;;;;;;;;;;5065591;28;20431;-64
2021/05/08 13:37:59;;;;;;;;;;;;;;;;;;5072216;28;19967;-66
2021/05/08 13:40:26;;;;;;;;;;;;;;;;;;5075870;28;19924;-66
2021/05/08 13:42:52;;;;;;;;;;;;;;;;;;5074152;28;19960;-63
2021/05/08 13:45:19;;;;;;;;;;;;;;;;;;5071339;28;19968;-64
2021/05/08 13:47:45;;;;;;;;;;;;;;;;;;5077289;28;20683;-63
2021/05/08 13:50:12;;;;;;;;;;;;;;;;;;5074682;28;19983;-67
2021/05/08 13:52:39;;;;;;;;;;;;;;;;;;5075682;28;19980;-64
2021/05/08 13:55:05;;;;;;;;;;;;;;;;;;5075020;28;19928;-64
2021/05/08 13:57:34;;;;;;;;;;;;;;;;;;5072892;28;19971;-65
2021/05/08 14:00:01;;;;;;;;;;;;;;;;;;5071011;28;20312;-65
2021/05/08 14:02:30;;;;;;;;;;;;;;;;;;5066900;28;20035;-65
2021/05/08 14:04:57;;;;;;;;;;;;;;;;;;5072409;28;20284;-63
2021/05/08 14:07:23;;;;;;;;;;;;;;;;;;5070874;28;19928;-63
2021/05/08 14:09:50;;;;;;;;;;;;;;;;;;5069864;28;20312;-63
2021/05/08 14:12:17;;;;;;;;;;;;;;;;;;5069506;28;19932;-63
2021/05/08 14:14:43;;;;;;;;;;;;;;;;;;5070154;28;19959;-64
2021/05/08 14:17:10;;;;;;;;;;;;;;;;;;5068751;28;20418;-66
2021/05/08 14:19:36;;;;;;;;;;;;;;;;;;5073688;28;20057;-66
2021/05/08 14:22:03;;;;;;;;;;;;;;;;;;5070577;28;20003;-65
2021/05/08 14:24:29;;;;;;;;;;;;;;;;;;5072399;28;19932;-64
2021/05/08 14:26:56;;;;;;;;;;;;;;;;;;5072294;28;19982;-64
2021/05/08 14:29:22;;;;;;;;;;;;;;;;;;5069601;28;20325;-64
2021/05/08 14:31:49;;;;;;;;;;;;;;;;;;5068815;28;20008;-64
2021/05/08 14:34:15;;;;;;;;;;;;;;;;;;5071611;28;20110;-67
2021/05/08 14:36:42;;;;;;;;;;;;;;;;;;5070577;28;19924;-65
2021/05/08 14:39:08;;;;;;;;;;;;;;;;;;5071986;28;20011;-65
2021/05/08 14:41:35;;;;;;;;;;;;;;;;;;5070990;28;19924;-66
2021/05/08 14:44:01;;;;;;;;;;;;;;;;;;5070024;28;19975;-65
2021/05/08 14:46:29;;;;;;;;;;;;;;;;;;5069725;28;19928;-67
2021/05/08 14:48:55;;;;;;;;;;;;;;;;;;5067747;28;19931;-65
2021/05/08 14:51:22;;;;;;;;;;;;;;;;;;5066884;28;20483;-66
2021/05/08 14:53:48;;;;;;;;;;;;;;;;;;5069568;28;19963;-67
2021/05/08 14:56:15;;;;;;;;;;;;;;;;;;5065774;28;20006;-65
2021/05/08 14:58:41;;;;;;;;;;;;;;;;;;5067311;28;19931;-65
2021/05/08 15:01:08;;;;;;;;;;;;;;;;;;5073690;28;19928;-65
2021/05/08 15:03:34;;;;;;;;;;;;;;;;;;5066505;28;19989;-64
2021/05/08 15:06:02;;;;;;;;;;;;;;;;;;5063414;28;20388;-64
2021/05/08 15:08:29;;;;;;;;;;;;;;;;;;5068358;28;19928;-64
2021/05/08 15:10:55;;;;;;;;;;;;;;;;;;5063360;28;19925;-64
2021/05/08 15:13:22;;;;;;;;;;;;;;;;;;5062635;28;19925;-65
2021/05/08 15:15:48;;;;;;;;;;;;;;;;;;5067334;28;19971;-65
2021/05/08 15:18:16;;;;;;;;;;;;;;;;;;5066845;28;19979;-66
2021/05/08 15:20:43;;;;;;;;;;;;;;;;;;5071741;28;19928;-64
2021/05/08 15:23:09;;;;;;;;;;;;;;;;;;5071962;28;19932;-64
2021/05/08 15:25:36;;;;;;;;;;;;;;;;;;5070790;28;19924;-65
2021/05/08 15:28:02;;;;;;;;;;;;;;;;;;5066577;28;20008;-64
2021/05/08 15:30:29;;;;;;;;;;;;;;;;;;5064177;28;20043;-66
2021/05/08 15:32:56;;;;;;;;;;;;;;;;;;5064666;28;19966;-65
2021/05/08 15:35:22;;;;;;;;;;;;;;;;;;5065200;28;19974;-63
2021/05/08 15:37:49;;;;;;;;;;;;;;;;;;5065386;28;19924;-64
2021/05/08 15:40:15;;;;;;;;;;;;;;;;;;5068788;28;20452;-65
2021/05/08 15:42:42;;;;;;;;;;;;;;;;;;5070596;28;19936;-63
2021/05/08 15:45:10;;;;;;;;;;;;;;;;;;5073653;28;20015;-63
2021/05/08 15:47:37;;;;;;;;;;;;;;;;;;5071232;28;19954;-65
2021/05/08 15:50:04;;;;;;;;;;;;;;;;;;5065621;28;19971;-64
2021/05/08 15:52:30;;;;;;;;;;;;;;;;;;5070051;28;19963;-64
2021/05/08 15:54:57;;;;;;;;;;;;;;;;;;5064603;28;19924;-66
2021/05/08 15:57:23;;;;;;;;;;;;;;;;;;5069519;28;20023;-65
2021/05/08 15:59:50;;;;;;;;;;;;;;;;;;5064721;28;20015;-66
2021/05/08 16:02:16;;;;;;;;;;;;;;;;;;5067941;28;20646;-65
2021/05/08 16:04:43;;;;;;;;;;;;;;;;;;5066111;28;20277;-66
2021/05/08 16:07:09;;;;;;;;;;;;;;;;;;5071056;28;20337;-66
2021/05/08 16:09:36;;;;;;;;;;;;;;;;;;5067659;28;20289;-67
2021/05/08 16:12:02;;;;;;;;;;;;;;;;;;5066490;28;19951;-67
2021/05/08 16:14:29;;;;;;;;;;;;;;;;;;5068698;28;20163;-66
2021/05/08 16:16:55;;;;;;;;;;;;;;;;;;5066427;28;19928;-66
2021/05/08 16:19:22;;;;;;;;;;;;;;;;;;5068668;28;20050;-65
2021/05/08 16:21:48;;;;;;;;;;;;;;;;;;5065836;28;19929;-66
2021/05/08 16:24:15;;;;;;;;;;;;;;;;;;5063096;28;19924;-65
2021/05/08 16:26:41;;;;;;;;;;;;;;;;;;5067582;28;20017;-66
2021/05/08 16:29:08;;;;;;;;;;;;;;;;;;5068300;28;19924;-65
2021/05/08 16:31:34;;;;;;;;;;;;;;;;;;5071488;28;19925;-67
2021/05/08 16:34:01;;;;;;;;;;;;;;;;;;5064313;28;19934;-65
2021/05/08 16:36:28;;;;;;;;;;;;;;;;;;5070688;28;19948;-63
2021/05/08 16:38:54;;;;;;;;;;;;;;;;;;5065422;28;19928;-65
2021/05/08 16:41:21;;;;;;;;;;;;;;;;;;5069639;28;19948;-65